createdAt,value
2019-05-14T00:00:01.183Z,306.24
2019-05-14T00:01:03.463Z,306.28
2019-05-14T00:02:02.871Z,306.20
2019-05-14T00:03:02.355Z,305.88
2019-05-14T00:04:11.505Z,305.59
2019-05-14T00:05:12.201Z,304.98
2019-05-14T00:06:11.545Z,305.74
2019-05-14T00:07:11.602Z,306.01
2019-05-14T00:08:02.240Z,306.03
2019-05-14T00:09:12.179Z,306.38
2019-05-14T00:10:11.851Z,306.31
2019-05-14T00:11:12.979Z,305.08
2019-05-14T00:12:02.564Z,305.15
2019-05-14T00:13:11.995Z,305.33
2019-05-14T00:14:01.351Z,305.67
2019-05-14T00:15:02.092Z,305.50
2019-05-14T00:16:01.351Z,305.41
2019-05-14T00:17:01.792Z,305.40
2019-05-14T00:18:01.258Z,305.61
2019-05-14T00:19:01.685Z,305.48
2019-05-14T00:20:07.243Z,306.28
2019-05-14T00:21:02.204Z,306.09
2019-05-14T00:22:02.031Z,306.82
2019-05-14T00:23:01.447Z,307.25
2019-05-14T00:24:01.829Z,306.27
2019-05-14T00:25:01.208Z,306.08
2019-05-14T00:26:01.797Z,305.99
2019-05-14T00:27:02.107Z,305.97
2019-05-14T00:28:01.384Z,305.12
2019-05-14T00:29:01.664Z,305.45
2019-05-14T00:30:02.451Z,305.40
2019-05-14T00:31:02.881Z,304.98
2019-05-14T00:32:01.945Z,305.50
2019-05-14T00:33:01.366Z,306.81
2019-05-14T00:34:01.792Z,305.36
2019-05-14T00:35:02.011Z,305.75
2019-05-14T00:36:02.136Z,305.90
2019-05-14T00:37:01.563Z,305.09
2019-05-14T00:38:01.366Z,305.78
2019-05-14T00:39:01.792Z,305.20
2019-05-14T00:40:01.284Z,304.60
2019-05-14T00:41:02.075Z,304.96
2019-05-14T00:42:01.808Z,304.70
2019-05-14T00:43:02.650Z,304.63
2019-05-14T00:44:01.927Z,304.98
2019-05-14T00:45:01.168Z,304.30
2019-05-14T00:46:01.680Z,305.63
2019-05-14T00:47:02.134Z,304.52
2019-05-14T00:48:01.505Z,305.71
2019-05-14T00:49:01.814Z,304.94
2019-05-14T00:50:02.265Z,305.04
2019-05-14T00:51:02.202Z,305.07
2019-05-14T00:52:02.325Z,304.70
2019-05-14T00:53:01.880Z,305.18
2019-05-14T00:54:01.722Z,304.37
2019-05-14T00:55:01.109Z,304.64
2019-05-14T00:56:02.095Z,305.24
2019-05-14T00:57:01.407Z,303.81
2019-05-14T00:58:02.391Z,305.40
2019-05-14T00:59:01.378Z,304.50
2019-05-14T01:00:01.150Z,305.24
2019-05-14T01:01:01.530Z,304.82
2019-05-14T01:02:03.107Z,304.91
2019-05-14T01:03:02.106Z,304.06
2019-05-14T01:04:01.316Z,304.74
2019-05-14T01:05:01.899Z,305.31
2019-05-14T01:06:02.634Z,305.47
2019-05-14T01:07:01.572Z,304.68
2019-05-14T01:08:01.873Z,304.50
2019-05-14T01:09:01.393Z,304.76
2019-05-14T01:10:01.308Z,305.05
2019-05-14T01:11:01.584Z,304.60
2019-05-14T01:12:01.820Z,305.66
2019-05-14T01:13:01.267Z,305.50
2019-05-14T01:14:01.700Z,304.81
2019-05-14T01:15:07.853Z,305.48
2019-05-14T01:16:01.759Z,305.36
2019-05-14T01:17:02.015Z,306.10
2019-05-14T01:18:02.235Z,305.64
2019-05-14T01:19:02.116Z,306.75
2019-05-14T01:20:02.862Z,305.29
2019-05-14T01:21:01.126Z,304.76
2019-05-14T01:22:01.711Z,305.44
2019-05-14T01:23:02.229Z,304.95
2019-05-14T01:24:02.079Z,305.07
2019-05-14T01:25:01.593Z,304.86
2019-05-14T01:26:02.347Z,305.74
2019-05-14T01:27:01.616Z,304.75
2019-05-14T01:28:02.084Z,306.46
2019-05-14T01:29:01.395Z,305.87
2019-05-14T01:30:02.062Z,306.68
2019-05-14T01:31:01.146Z,306.30
2019-05-14T01:32:01.283Z,307.10
2019-05-14T01:33:01.825Z,306.85
2019-05-14T01:34:02.196Z,307.03
2019-05-14T01:35:01.361Z,306.62
2019-05-14T01:36:02.009Z,306.26
2019-05-14T01:37:02.242Z,307.52
2019-05-14T01:38:02.444Z,306.76
2019-05-14T01:39:01.837Z,306.85
2019-05-14T01:40:01.189Z,306.36
2019-05-14T01:41:01.881Z,305.91
2019-05-14T01:42:02.553Z,305.83
2019-05-14T01:43:02.381Z,305.67
2019-05-14T01:44:01.833Z,306.28
2019-05-14T01:45:02.425Z,305.83
2019-05-14T01:46:01.872Z,306.04
2019-05-14T01:47:01.954Z,306.41
2019-05-14T01:48:01.290Z,305.80
2019-05-14T01:49:01.563Z,305.90
2019-05-14T01:50:02.049Z,306.69
2019-05-14T01:51:01.557Z,305.24
2019-05-14T01:52:01.778Z,305.17
2019-05-14T01:53:01.259Z,305.81
2019-05-14T01:54:01.493Z,304.90
2019-05-14T01:55:02.007Z,305.04
2019-05-14T01:56:01.635Z,304.99
2019-05-14T01:57:02.030Z,304.87
2019-05-14T01:58:02.116Z,304.87
2019-05-14T01:59:01.657Z,304.55
2019-05-14T02:00:02.114Z,305.64
2019-05-14T02:01:02.033Z,305.92
2019-05-14T02:02:02.155Z,304.85
2019-05-14T02:03:01.816Z,304.89
2019-05-14T02:04:02.146Z,304.35
2019-05-14T02:05:02.056Z,305.05
2019-05-14T02:06:01.458Z,305.25
2019-05-14T02:07:02.133Z,305.37
2019-05-14T02:08:01.743Z,305.16
2019-05-14T02:09:01.873Z,306.45
2019-05-14T02:10:01.107Z,305.56
2019-05-14T02:11:01.634Z,305.23
2019-05-14T02:12:02.019Z,305.94
2019-05-14T02:13:02.021Z,306.15
2019-05-14T02:13:59.747Z,305.57
2019-05-14T02:15:01.809Z,305.60
2019-05-14T02:16:01.356Z,306.00
2019-05-14T02:17:01.845Z,305.50
2019-05-14T02:18:02.092Z,305.47
2019-05-14T02:19:01.406Z,305.66
2019-05-14T02:20:01.855Z,305.36
2019-05-14T02:21:01.570Z,305.01
2019-05-14T02:22:01.873Z,305.55
2019-05-14T02:23:01.493Z,306.01
2019-05-14T02:24:01.829Z,305.77
2019-05-14T02:24:59.620Z,305.88
2019-05-14T02:25:59.628Z,305.70
2019-05-14T02:27:01.813Z,305.54
2019-05-14T02:28:01.359Z,305.81
2019-05-14T02:29:01.799Z,305.66
2019-05-14T02:30:01.719Z,305.46
2019-05-14T02:31:03.358Z,305.45
2019-05-14T02:31:59.583Z,305.77
2019-05-14T02:32:59.746Z,305.70
2019-05-14T02:33:59.545Z,305.53
2019-05-14T02:34:59.541Z,306.23
2019-05-14T02:36:00.205Z,305.40
2019-05-14T02:37:00.391Z,305.75
2019-05-14T02:37:59.855Z,305.63
2019-05-14T02:39:00.491Z,306.27
2019-05-14T02:39:59.822Z,306.76
2019-05-14T02:41:00.137Z,306.90
2019-05-14T02:41:59.480Z,305.97
2019-05-14T02:42:59.597Z,305.68
2019-05-14T02:43:59.619Z,306.11
2019-05-14T02:44:59.450Z,306.03
2019-05-14T02:46:10.620Z,306.45
2019-05-14T02:47:00.388Z,306.07
2019-05-14T02:48:00.279Z,305.39
2019-05-14T02:48:59.672Z,306.57
2019-05-14T02:49:59.383Z,306.30
2019-05-14T02:51:00.099Z,305.34
2019-05-14T02:51:59.380Z,307.69
2019-05-14T02:53:00.070Z,307.16
2019-05-14T02:53:59.408Z,307.49
2019-05-14T02:54:59.809Z,306.73
2019-05-14T02:55:59.650Z,306.13
2019-05-14T02:57:00.105Z,306.45
2019-05-14T02:57:59.965Z,306.15
2019-05-14T02:58:59.983Z,305.70
2019-05-14T02:59:59.817Z,306.61
2019-05-14T03:01:00.511Z,305.42
2019-05-14T03:01:59.350Z,306.15
2019-05-14T03:02:59.901Z,306.00
2019-05-14T03:03:59.792Z,305.65
2019-05-14T03:04:59.403Z,307.31
2019-05-14T03:06:00.237Z,306.72
2019-05-14T03:06:59.362Z,306.80
2019-05-14T03:07:59.892Z,306.77
2019-05-14T03:08:59.929Z,306.51
2019-05-14T03:09:59.451Z,308.14
2019-05-14T03:11:00.284Z,306.15
2019-05-14T03:11:59.662Z,306.88
2019-05-14T03:12:59.228Z,306.65
2019-05-14T03:14:00.074Z,306.66
2019-05-14T03:14:59.163Z,306.66
2019-05-14T03:15:59.638Z,306.46
2019-05-14T03:16:59.574Z,306.52
2019-05-14T03:17:59.970Z,306.22
2019-05-14T03:18:59.681Z,306.79
2019-05-14T03:20:00.050Z,306.63
2019-05-14T03:21:00.809Z,306.98
2019-05-14T03:22:00.248Z,305.48
2019-05-14T03:23:08.013Z,306.09
2019-05-14T03:24:00.942Z,306.38
2019-05-14T03:24:59.825Z,306.41
2019-05-14T03:26:00.451Z,306.54
2019-05-14T03:26:59.012Z,305.94
2019-05-14T03:28:00.005Z,305.71
2019-05-14T03:29:00.029Z,305.24
2019-05-14T03:29:58.954Z,305.89
2019-05-14T03:31:02.822Z,306.64
2019-05-14T03:32:02.877Z,306.25
2019-05-14T03:33:02.654Z,305.91
2019-05-14T03:34:02.677Z,305.80
2019-05-14T03:35:03.515Z,306.32
2019-05-14T03:36:08.234Z,305.80
2019-05-14T03:37:03.186Z,306.34
2019-05-14T03:38:00.450Z,306.17
2019-05-14T03:38:59.407Z,306.20
2019-05-14T03:39:59.416Z,305.94
2019-05-14T03:41:00.163Z,306.83
2019-05-14T03:41:59.231Z,305.83
2019-05-14T03:42:59.870Z,306.63
2019-05-14T03:44:00.092Z,306.20
2019-05-14T03:44:59.756Z,305.83
2019-05-14T03:45:59.499Z,306.57
2019-05-14T03:47:04.630Z,305.63
2019-05-14T03:47:59.757Z,306.53
2019-05-14T03:49:00.153Z,306.81
2019-05-14T03:49:59.002Z,306.11
2019-05-14T03:51:00.264Z,307.23
2019-05-14T03:52:00.420Z,305.23
2019-05-14T03:52:59.434Z,305.56
2019-05-14T03:54:06.581Z,306.25
2019-05-14T03:55:04.293Z,305.99
2019-05-14T03:55:59.663Z,306.64
2019-05-14T03:57:00.326Z,306.94
2019-05-14T03:57:59.554Z,307.05
2019-05-14T03:58:59.931Z,305.91
2019-05-14T03:59:59.643Z,307.28
2019-05-14T04:01:00.388Z,306.90
2019-05-14T04:01:59.609Z,307.95
2019-05-14T04:03:00.302Z,306.64
2019-05-14T04:03:59.392Z,306.30
2019-05-14T04:05:00.025Z,307.69
2019-05-14T04:05:59.411Z,307.46
2019-05-14T04:06:59.905Z,306.36
2019-05-14T04:08:00.111Z,306.01
2019-05-14T04:09:00.551Z,305.85
2019-05-14T04:09:59.500Z,307.36
2019-05-14T04:10:59.313Z,308.03
2019-05-14T04:11:59.436Z,306.10
2019-05-14T04:12:59.892Z,306.98
2019-05-14T04:14:00.160Z,306.69
2019-05-14T04:14:59.589Z,306.33
2019-05-14T04:16:00.173Z,306.78
2019-05-14T04:17:08.895Z,307.08
2019-05-14T04:17:59.762Z,306.73
2019-05-14T04:18:59.447Z,307.62
2019-05-14T04:19:59.978Z,306.96
2019-05-14T04:20:59.562Z,306.74
2019-05-14T04:21:59.793Z,306.82
2019-05-14T04:22:59.997Z,306.82
2019-05-14T04:23:59.440Z,307.13
2019-05-14T04:24:59.756Z,306.51
2019-05-14T04:26:00.638Z,306.94
2019-05-14T04:27:07.323Z,306.52
2019-05-14T04:27:59.738Z,306.94
2019-05-14T04:29:00.348Z,307.36
2019-05-14T04:29:59.008Z,307.46
2019-05-14T04:30:59.615Z,306.88
2019-05-14T04:32:00.215Z,306.73
2019-05-14T04:32:59.444Z,306.48
2019-05-14T04:33:59.308Z,307.42
2019-05-14T04:34:59.699Z,306.99
2019-05-14T04:35:59.891Z,307.48
2019-05-14T04:36:59.336Z,308.01
2019-05-14T04:37:58.862Z,307.58
2019-05-14T04:39:00.624Z,308.35
2019-05-14T04:39:59.332Z,307.56
2019-05-14T04:40:59.786Z,307.60
2019-05-14T04:41:59.944Z,307.58
2019-05-14T04:42:59.162Z,307.32
2019-05-14T04:43:59.490Z,308.77
2019-05-14T04:45:00.786Z,307.62
2019-05-14T04:45:59.526Z,306.20
2019-05-14T04:46:59.995Z,307.00
2019-05-14T04:48:00.198Z,308.65
2019-05-14T04:48:59.211Z,306.48
2019-05-14T04:49:59.189Z,306.80
2019-05-14T04:51:00.375Z,306.62
2019-05-14T04:51:59.539Z,306.87
2019-05-14T04:52:59.883Z,307.02
2019-05-14T04:53:59.842Z,306.28
2019-05-14T04:54:59.404Z,307.20
2019-05-14T04:56:00.086Z,306.38
2019-05-14T04:56:59.996Z,306.28
2019-05-14T04:57:59.062Z,307.13
2019-05-14T04:58:59.656Z,306.05
2019-05-14T04:59:59.776Z,305.87
2019-05-14T05:01:00.623Z,307.04
2019-05-14T05:02:00.002Z,305.17
2019-05-14T05:03:00.065Z,308.23
2019-05-14T05:03:59.176Z,307.59
2019-05-14T05:04:59.395Z,305.66
2019-05-14T05:05:58.977Z,308.18
2019-05-14T05:06:59.211Z,307.07
2019-05-14T05:07:59.703Z,306.77
2019-05-14T05:09:00.098Z,307.02
2019-05-14T05:09:59.396Z,305.81
2019-05-14T05:10:59.943Z,306.92
2019-05-14T05:12:00.067Z,305.25
2019-05-14T05:12:58.582Z,306.72
2019-05-14T05:13:59.312Z,305.50
2019-05-14T05:14:58.684Z,305.92
2019-05-14T05:15:59.430Z,306.20
2019-05-14T05:16:59.787Z,306.01
2019-05-14T05:17:58.952Z,307.25
2019-05-14T05:18:59.498Z,306.54
2019-05-14T05:19:59.365Z,307.37
2019-05-14T05:20:58.397Z,306.05
2019-05-14T05:21:58.668Z,307.12
2019-05-14T05:22:59.074Z,307.38
2019-05-14T05:23:58.510Z,305.59
2019-05-14T05:24:58.925Z,306.31
2019-05-14T05:25:58.558Z,306.59
2019-05-14T05:26:58.576Z,306.40
2019-05-14T05:27:59.746Z,306.02
2019-05-14T05:29:03.549Z,307.22
2019-05-14T05:29:59.110Z,306.89
2019-05-14T05:30:58.556Z,306.68
2019-05-14T05:31:59.343Z,306.81
2019-05-14T05:32:59.676Z,305.09
2019-05-14T05:33:58.257Z,307.57
2019-05-14T05:34:58.659Z,308.20
2019-05-14T05:35:59.395Z,307.15
2019-05-14T05:36:59.166Z,306.05
2019-05-14T05:37:58.275Z,305.44
2019-05-14T05:38:59.344Z,306.96
2019-05-14T05:39:58.341Z,307.61
2019-05-14T05:40:59.988Z,307.30
2019-05-14T05:41:58.554Z,306.19
2019-05-14T05:42:58.074Z,305.33
2019-05-14T05:43:58.934Z,306.14
2019-05-14T05:44:58.779Z,306.33
2019-05-14T05:45:59.288Z,305.39
2019-05-14T05:46:59.758Z,305.60
2019-05-14T05:48:01.421Z,306.22
2019-05-14T05:48:58.750Z,305.65
2019-05-14T05:49:58.128Z,306.66
2019-05-14T05:50:59.150Z,305.85
2019-05-14T05:51:59.120Z,307.01
2019-05-14T05:52:58.535Z,307.37
2019-05-14T05:53:58.852Z,305.57
2019-05-14T05:54:58.353Z,305.85
2019-05-14T05:55:59.281Z,305.13
2019-05-14T05:56:58.186Z,304.57
2019-05-14T05:57:58.730Z,305.81
2019-05-14T05:58:57.380Z,304.55
2019-05-14T05:59:58.814Z,305.06
2019-05-14T06:00:59.117Z,305.01
2019-05-14T06:01:58.648Z,305.84
2019-05-14T06:02:59.083Z,305.20
2019-05-14T06:03:58.351Z,305.51
2019-05-14T06:04:58.658Z,305.70
2019-05-14T06:05:59.369Z,304.90
2019-05-14T06:06:59.065Z,305.99
2019-05-14T06:07:59.051Z,306.72
2019-05-14T06:08:58.349Z,305.64
2019-05-14T06:09:58.812Z,306.25
2019-05-14T06:10:59.100Z,305.04
2019-05-14T06:11:59.196Z,306.57
2019-05-14T06:12:58.526Z,306.90
2019-05-14T06:13:58.914Z,305.04
2019-05-14T06:15:08.487Z,305.39
2019-05-14T06:15:59.179Z,305.33
2019-05-14T06:16:59.094Z,306.14
2019-05-14T06:18:13.346Z,305.25
2019-05-14T06:18:58.773Z,304.90
2019-05-14T06:19:59.117Z,305.18
2019-05-14T06:20:58.564Z,304.59
2019-05-14T06:21:59.439Z,305.76
2019-05-14T06:22:58.889Z,304.75
2019-05-14T06:23:58.285Z,304.46
2019-05-14T06:24:58.634Z,304.72
2019-05-14T06:25:59.736Z,305.60
2019-05-14T06:26:58.575Z,305.07
2019-05-14T06:27:59.039Z,306.04
2019-05-14T06:28:59.769Z,305.10
2019-05-14T06:29:58.248Z,304.56
2019-05-14T06:30:59.025Z,305.03
2019-05-14T06:31:58.925Z,305.09
2019-05-14T06:32:59.265Z,305.27
2019-05-14T06:33:59.120Z,304.73
2019-05-14T06:34:59.193Z,304.52
2019-05-14T06:35:59.200Z,303.76
2019-05-14T06:36:59.140Z,305.37
2019-05-14T06:37:58.199Z,303.85
2019-05-14T06:38:58.638Z,305.13
2019-05-14T06:39:58.556Z,306.26
2019-05-14T06:40:59.087Z,304.49
2019-05-14T06:41:58.548Z,304.46
2019-05-14T06:42:59.038Z,303.78
2019-05-14T06:43:59.055Z,303.47
2019-05-14T06:44:58.572Z,303.46
2019-05-14T06:45:58.563Z,305.28
2019-05-14T06:46:58.911Z,304.11
2019-05-14T06:47:59.191Z,304.52
2019-05-14T06:48:59.027Z,304.35
2019-05-14T06:49:59.088Z,304.53
2019-05-14T06:50:58.346Z,304.35
2019-05-14T06:51:59.331Z,303.29
2019-05-14T06:52:58.156Z,304.95
2019-05-14T06:53:58.793Z,304.74
2019-05-14T06:54:58.235Z,305.06
2019-05-14T06:55:58.842Z,304.52
2019-05-14T06:56:58.299Z,304.54
2019-05-14T06:57:58.515Z,304.75
2019-05-14T06:58:58.401Z,304.69
2019-05-14T06:59:58.723Z,303.73
2019-05-14T07:00:58.681Z,304.55
2019-05-14T07:02:08.481Z,304.57
2019-05-14T07:03:05.667Z,303.67
2019-05-14T07:04:06.096Z,305.15
2019-05-14T07:05:05.192Z,304.61
2019-05-14T07:06:08.778Z,304.88
2019-05-14T07:08:14.195Z,302.48
2019-05-14T07:10:31.706Z,300.13
2019-05-14T07:11:39.647Z,303.51
2019-05-14T07:12:46.696Z,303.60
2019-05-14T07:13:41.140Z,303.42
2019-05-14T07:14:40.684Z,303.46
2019-05-14T07:15:40.841Z,302.69
2019-05-14T07:16:33.087Z,302.36
2019-05-14T07:17:31.292Z,302.18
2019-05-14T07:18:45.434Z,302.82
2019-05-14T07:20:43.369Z,301.49
2019-05-14T07:21:43.351Z,302.95
2019-05-14T07:22:43.334Z,302.68
2019-05-14T07:23:43.320Z,302.62
2019-05-14T07:24:43.372Z,302.70
2019-05-14T07:25:43.273Z,302.65
2019-05-14T07:26:43.257Z,302.69
2019-05-14T07:27:43.259Z,302.34
2019-05-14T07:28:43.254Z,303.93
2019-05-14T07:29:43.254Z,302.92
2019-05-14T07:30:43.204Z,303.13
2019-05-14T07:31:43.241Z,302.96
2019-05-14T07:32:43.354Z,302.96
2019-05-14T07:33:43.219Z,303.02
2019-05-14T07:34:43.180Z,303.08
2019-05-14T07:35:43.139Z,303.58
2019-05-14T07:36:43.128Z,302.63
2019-05-14T07:37:43.219Z,303.09
2019-05-14T07:38:43.135Z,302.59
2019-05-14T07:39:43.168Z,302.35
2019-05-14T07:40:43.159Z,302.16
2019-05-14T07:41:43.092Z,303.08
2019-05-14T07:42:43.104Z,303.58
2019-05-14T07:43:43.108Z,302.29
2019-05-14T07:44:43.099Z,302.35
2019-05-14T07:45:43.073Z,303.04
2019-05-14T07:46:43.038Z,302.60
2019-05-14T07:47:43.009Z,302.75
2019-05-14T07:48:43.004Z,302.67
2019-05-14T07:49:43.037Z,302.99
2019-05-14T07:50:43.001Z,302.93
2019-05-14T07:51:42.977Z,303.33
2019-05-14T07:52:46.100Z,303.26
2019-05-14T07:53:43.042Z,303.29
2019-05-14T07:54:43.705Z,303.04
2019-05-14T07:55:42.970Z,303.02
2019-05-14T07:56:43.045Z,303.25
2019-05-14T07:57:42.953Z,303.32
2019-05-14T07:58:42.923Z,302.65
2019-05-14T07:59:42.914Z,303.23
2019-05-14T08:00:42.962Z,303.77
2019-05-14T08:01:42.953Z,302.65
2019-05-14T08:02:42.903Z,302.24
2019-05-14T08:03:42.864Z,301.83
2019-05-14T08:04:46.015Z,302.33
2019-05-14T08:05:43.563Z,302.22
2019-05-14T08:06:42.907Z,300.66
2019-05-14T08:07:42.852Z,301.18
2019-05-14T08:08:42.824Z,301.52
2019-05-14T08:09:42.798Z,302.09
2019-05-14T08:10:42.770Z,302.60
2019-05-14T08:11:42.803Z,302.05
2019-05-14T08:12:42.843Z,301.81
2019-05-14T08:13:42.775Z,301.81
2019-05-14T08:14:57.969Z,302.87
2019-05-14T08:15:43.752Z,303.09
2019-05-14T08:16:42.747Z,303.02
2019-05-14T08:17:42.786Z,302.43
2019-05-14T08:18:42.690Z,303.01
2019-05-14T08:19:42.689Z,302.58
2019-05-14T08:20:42.695Z,303.29
2019-05-14T08:21:42.690Z,302.58
2019-05-14T08:22:42.681Z,302.65
2019-05-14T08:23:42.670Z,303.32
2019-05-14T08:24:42.628Z,302.90
2019-05-14T08:25:42.678Z,302.77
2019-05-14T08:26:44.109Z,302.69
2019-05-14T08:27:42.598Z,302.08
2019-05-14T08:28:42.651Z,302.37
2019-05-14T08:29:42.730Z,303.00
2019-05-14T08:30:42.581Z,302.87
2019-05-14T08:31:42.569Z,303.64
2019-05-14T08:32:42.531Z,303.85
2019-05-14T08:33:42.610Z,303.06
2019-05-14T08:34:42.551Z,303.37
2019-05-14T08:35:42.509Z,303.66
2019-05-14T08:36:42.521Z,303.31
2019-05-14T08:37:42.623Z,302.97
2019-05-14T08:38:45.444Z,303.47
2019-05-14T08:39:42.531Z,304.04
2019-05-14T08:40:42.509Z,303.18
2019-05-14T08:41:42.516Z,302.54
2019-05-14T08:42:42.464Z,302.21
2019-05-14T08:43:42.474Z,303.04
2019-05-14T08:44:42.469Z,303.09
2019-05-14T08:45:45.359Z,303.59
2019-05-14T08:46:45.102Z,302.98
2019-05-14T08:47:42.401Z,304.16
2019-05-14T08:48:42.360Z,302.02
2019-05-14T08:49:46.702Z,303.34
2019-05-14T08:50:43.393Z,302.72
2019-05-14T08:51:42.347Z,302.72
2019-05-14T08:52:42.519Z,302.94
2019-05-14T08:53:42.321Z,302.76
2019-05-14T08:54:42.355Z,302.11
2019-05-14T08:55:42.312Z,302.73
2019-05-14T08:56:42.282Z,302.13
2019-05-14T08:57:42.378Z,302.07
2019-05-14T08:58:42.274Z,301.59
2019-05-14T08:59:42.305Z,302.21
2019-05-14T09:00:42.291Z,300.90
2019-05-14T09:01:57.232Z,300.90
2019-05-14T09:02:43.210Z,301.79
2019-05-14T09:03:42.239Z,301.53
2019-05-14T09:04:43.475Z,300.22
2019-05-14T09:05:42.178Z,301.58
2019-05-14T09:06:42.214Z,301.21
2019-05-14T09:07:43.079Z,301.55
2019-05-14T09:08:42.231Z,301.99
2019-05-14T09:09:42.163Z,301.49
2019-05-14T09:10:42.208Z,302.17
2019-05-14T09:11:45.570Z,303.01
2019-05-14T09:12:42.315Z,301.86
2019-05-14T09:13:42.221Z,301.55
2019-05-14T09:14:42.094Z,302.19
2019-05-14T09:15:42.095Z,302.10
2019-05-14T09:16:46.946Z,301.89
2019-05-14T09:17:43.053Z,302.68
2019-05-14T09:18:42.094Z,302.18
2019-05-14T09:19:57.652Z,302.38
2019-05-14T09:20:43.057Z,302.16
2019-05-14T09:21:42.057Z,302.11
2019-05-14T09:22:42.047Z,298.40
2019-05-14T09:23:42.004Z,300.43
2019-05-14T09:24:41.974Z,301.34
2019-05-14T09:25:47.933Z,299.68
2019-05-14T09:26:42.970Z,301.12
2019-05-14T09:27:41.979Z,301.38
2019-05-14T09:28:41.920Z,302.38
2019-05-14T09:29:41.984Z,301.22
2019-05-14T09:30:41.948Z,300.66
2019-05-14T09:31:41.921Z,301.02
2019-05-14T09:32:41.964Z,301.05
2019-05-14T09:33:41.893Z,299.94
2019-05-14T09:34:41.874Z,300.73
2019-05-14T09:35:41.873Z,301.33
2019-05-14T09:36:41.918Z,300.79
2019-05-14T09:37:41.871Z,299.92
2019-05-14T09:38:42.661Z,301.71
2019-05-14T09:39:41.837Z,302.09
2019-05-14T09:40:41.852Z,299.28
2019-05-14T09:41:41.811Z,301.15
2019-05-14T09:42:41.833Z,302.20
2019-05-14T09:43:42.591Z,302.39
2019-05-14T09:44:41.782Z,301.63
2019-05-14T09:45:41.740Z,301.96
2019-05-14T09:46:41.746Z,301.65
2019-05-14T09:47:41.786Z,302.37
2019-05-14T09:48:41.742Z,301.56
2019-05-14T09:49:41.727Z,299.64
2019-05-14T09:50:42.589Z,301.83
2019-05-14T09:51:41.688Z,301.72
2019-05-14T09:52:41.691Z,300.69
2019-05-14T09:53:41.726Z,300.90
2019-05-14T09:54:44.017Z,302.21
2019-05-14T09:55:41.654Z,302.35
2019-05-14T09:56:41.664Z,302.73
2019-05-14T09:57:41.682Z,303.16
2019-05-14T09:58:41.657Z,301.89
2019-05-14T09:59:41.696Z,300.63
2019-05-14T10:00:41.624Z,301.70
2019-05-14T10:01:41.600Z,300.98
2019-05-14T10:02:41.660Z,302.48
2019-05-14T10:03:41.560Z,302.31
2019-05-14T10:04:41.619Z,303.20
2019-05-14T10:05:41.580Z,303.02
2019-05-14T10:06:41.575Z,302.05
2019-05-14T10:07:41.518Z,301.79
2019-05-14T10:08:41.536Z,303.02
2019-05-14T10:09:41.583Z,301.90
2019-05-14T10:10:41.504Z,301.84
2019-05-14T10:11:41.527Z,301.71
2019-05-14T10:12:52.921Z,302.83
2019-05-14T10:13:42.492Z,302.53
2019-05-14T10:14:41.482Z,304.32
2019-05-14T10:15:41.480Z,304.99
2019-05-14T10:16:41.510Z,303.17
2019-05-14T10:17:41.446Z,302.76
2019-05-14T10:18:41.397Z,302.64
2019-05-14T10:19:41.402Z,303.61
2019-05-14T10:20:45.777Z,302.02
2019-05-14T10:21:42.452Z,302.48
2019-05-14T10:22:41.369Z,301.53
2019-05-14T10:23:41.378Z,301.83
2019-05-14T10:24:41.374Z,301.36
2019-05-14T10:25:42.478Z,300.35
2019-05-14T10:26:41.447Z,300.93
2019-05-14T10:27:41.534Z,301.61
2019-05-14T10:28:43.410Z,301.46
2019-05-14T10:29:41.276Z,301.48
2019-05-14T10:30:41.282Z,298.97
2019-05-14T10:31:41.260Z,299.32
2019-05-14T10:32:41.858Z,300.63
2019-05-14T10:33:41.259Z,300.90
2019-05-14T10:34:41.259Z,301.04
2019-05-14T10:35:41.224Z,301.15
2019-05-14T10:36:41.233Z,303.08
2019-05-14T10:37:41.305Z,302.88
2019-05-14T10:38:41.191Z,303.12
2019-05-14T10:39:41.209Z,301.68
2019-05-14T10:40:41.209Z,301.62
2019-05-14T10:41:41.175Z,301.58
2019-05-14T10:42:41.212Z,299.92
2019-05-14T10:43:41.177Z,301.11
2019-05-14T10:44:41.146Z,301.27
2019-05-14T10:45:41.102Z,302.07
2019-05-14T10:46:41.136Z,302.43
2019-05-14T10:47:41.123Z,300.38
2019-05-14T10:48:41.144Z,301.98
2019-05-14T10:49:41.088Z,302.17
2019-05-14T10:50:56.219Z,302.58
2019-05-14T10:51:42.048Z,302.79
2019-05-14T10:52:41.610Z,300.24
2019-05-14T10:53:41.066Z,301.75
2019-05-14T10:54:54.936Z,302.80
2019-05-14T10:55:42.009Z,303.26
2019-05-14T10:56:40.992Z,300.21
2019-05-14T10:57:41.014Z,300.70
2019-05-14T10:58:41.095Z,300.99
2019-05-14T10:59:41.002Z,301.36
2019-05-14T11:00:41.850Z,302.09
2019-05-14T11:01:40.935Z,303.50
2019-05-14T11:02:40.955Z,303.57
2019-05-14T11:03:40.944Z,300.77
2019-05-14T11:04:40.930Z,301.77
2019-05-14T11:05:41.680Z,300.70
2019-05-14T11:06:40.878Z,301.70
2019-05-14T11:07:41.689Z,302.11
2019-05-14T11:08:40.911Z,301.02
2019-05-14T11:09:41.005Z,300.84
2019-05-14T11:10:42.216Z,300.99
2019-05-14T11:11:40.863Z,301.14
2019-05-14T11:12:40.806Z,300.38
2019-05-14T11:13:40.803Z,299.85
2019-05-14T11:14:41.612Z,301.66
2019-05-14T11:15:40.834Z,300.10
2019-05-14T11:16:41.964Z,301.97
2019-05-14T11:17:40.946Z,301.14
2019-05-14T11:18:40.801Z,301.22
2019-05-14T11:19:40.803Z,299.84
2019-05-14T11:20:42.249Z,301.09
2019-05-14T11:21:40.721Z,300.93
2019-05-14T11:22:40.730Z,300.38
2019-05-14T11:23:40.708Z,299.91
2019-05-14T11:24:40.719Z,300.76
2019-05-14T11:25:40.713Z,301.11
2019-05-14T11:26:40.691Z,300.92
2019-05-14T11:27:40.663Z,300.77
2019-05-14T11:28:40.644Z,301.81
2019-05-14T11:29:40.632Z,301.24
2019-05-14T11:30:40.693Z,301.92
2019-05-14T11:31:40.665Z,301.12
2019-05-14T11:32:40.603Z,300.76
2019-05-14T11:33:40.606Z,301.58
2019-05-14T11:34:40.587Z,302.67
2019-05-14T11:35:40.614Z,301.35
2019-05-14T11:36:40.650Z,301.90
2019-05-14T11:37:41.356Z,302.97
2019-05-14T11:38:40.545Z,301.97
2019-05-14T11:39:40.541Z,301.42
2019-05-14T11:40:40.563Z,302.22
2019-05-14T11:41:41.119Z,302.48
2019-05-14T11:42:40.481Z,301.89
2019-05-14T11:43:40.534Z,302.64
2019-05-14T11:45:59.459Z,298.95
2019-05-14T11:47:02.378Z,300.92
2019-05-14T11:47:58.352Z,300.81
2019-05-14T11:49:02.133Z,302.25
2019-05-14T11:49:59.173Z,301.40
2019-05-14T11:50:59.288Z,301.26
2019-05-14T11:52:06.942Z,302.52
2019-05-14T11:52:58.793Z,302.05
2019-05-14T11:53:58.729Z,301.76
2019-05-14T11:54:58.484Z,299.69
2019-05-14T11:55:58.737Z,301.65
2019-05-14T11:56:58.890Z,299.75
2019-05-14T11:57:58.411Z,302.55
2019-05-14T11:58:59.125Z,302.43
2019-05-14T11:59:58.201Z,302.75
2019-05-14T12:00:58.480Z,302.13
2019-05-14T12:01:59.382Z,302.25
2019-05-14T12:02:58.611Z,302.55
2019-05-14T12:03:59.751Z,302.89
2019-05-14T12:04:57.724Z,301.40
2019-05-14T12:05:58.573Z,302.97
2019-05-14T12:06:59.154Z,302.80
2019-05-14T12:07:57.669Z,301.93
2019-05-14T12:08:58.257Z,300.61
2019-05-14T12:09:57.627Z,301.87
2019-05-14T12:10:59.290Z,301.73
2019-05-14T12:11:58.774Z,302.62
2019-05-14T12:12:58.416Z,302.19
2019-05-14T12:13:59.884Z,300.59
2019-05-14T12:14:58.279Z,300.30
2019-05-14T12:15:59.101Z,301.69
2019-05-14T12:17:00.093Z,302.48
2019-05-14T12:17:59.484Z,301.85
2019-05-14T12:18:59.054Z,302.37
2019-05-14T12:19:59.404Z,301.42
2019-05-14T12:20:59.341Z,301.53
2019-05-14T12:22:06.716Z,300.96
2019-05-14T12:22:59.336Z,302.17
2019-05-14T12:24:04.338Z,301.12
2019-05-14T12:24:58.524Z,302.07
2019-05-14T12:25:58.799Z,302.38
2019-05-14T12:26:58.578Z,302.93
2019-05-14T12:27:58.901Z,302.44
2019-05-14T12:28:59.438Z,302.51
2019-05-14T12:29:59.858Z,301.23
2019-05-14T12:30:58.339Z,302.87
2019-05-14T12:31:58.582Z,298.69
2019-05-14T12:32:59.012Z,301.51